Terminal Aerodrome Forecast
Issued by NWS

Home | Current Version | Previous Version | Text Only | Print | Product List | Glossary On
Versions: 1 2 3 4 5 6 7 8 9 10 11 12 13 14 15 16 17 18 19 20 21 22 23 24 25 26 27 28 29
000
FTUS46 KPDT 262000 AAB
TAFDLS
TAF AMD
KDLS 262004Z 2620/2718 07005KT P6SM SCT007 OVC012
      TEMPO 2620/2622 OVC010
     FM270500 07005KT 6SM BR OVC007
     FM271000 07004KT 3SM BR OVC004=

USA.gov is the U.S. government's official web portal to all federal, state and local government web resources and services.